createdAt,value
2023-03-22T00:00:22.076Z,93.20
2023-03-22T00:04:24.756Z,94.18
2023-03-22T00:08:27.456Z,93.80
2023-03-22T00:12:30.462Z,95.89
2023-03-22T00:16:34.543Z,94.12
2023-03-22T00:20:39.487Z,96.56
2023-03-22T00:24:42.285Z,96.40
2023-03-22T00:28:45.506Z,96.33
2023-03-22T00:32:49.548Z,96.24
2023-03-22T00:36:52.936Z,97.02
2023-03-22T00:40:55.666Z,95.34
2023-03-22T00:44:58.376Z,95.35
2023-03-22T00:49:02.446Z,97.02
2023-03-22T00:53:05.823Z,98.38
2023-03-22T00:57:08.829Z,95.66
2023-03-22T01:01:14.189Z,96.01
2023-03-22T01:05:22.048Z,96.49
2023-03-22T01:09:24.748Z,95.52
2023-03-22T01:13:27.566Z,96.79
2023-03-22T01:17:30.299Z,96.10
2023-03-22T01:21:34.431Z,97.77
2023-03-22T01:25:37.133Z,97.94
2023-03-22T01:29:39.835Z,94.94
2023-03-22T01:33:42.720Z,95.79
2023-03-22T01:37:46.747Z,96.46
2023-03-22T01:41:49.424Z,95.05
2023-03-22T01:45:53.540Z,94.89
2023-03-22T01:49:56.146Z,96.04
2023-03-22T01:54:02.205Z,96.55
2023-03-22T01:58:05.838Z,95.98
2023-03-22T02:02:11.120Z,96.73
2023-03-22T02:06:13.881Z,95.02
2023-03-22T02:10:20.569Z,95.23
2023-03-22T02:14:44.321Z,96.23
2023-03-22T02:18:58.817Z,98.38
2023-03-22T02:23:20.294Z,98.40
2023-03-22T02:27:36.949Z,97.76
2023-03-22T02:32:07.420Z,96.25
2023-03-22T02:36:32.655Z,96.14
2023-03-22T02:40:41.503Z,95.58
2023-03-22T02:44:47.069Z,96.26
2023-03-22T02:48:55.568Z,96.85
2023-03-22T02:53:02.400Z,96.61
2023-03-22T02:57:10.832Z,95.29
2023-03-22T03:01:18.578Z,95.98
2023-03-22T03:05:21.799Z,97.15
2023-03-22T03:09:24.751Z,97.56
2023-03-22T03:13:28.931Z,96.96
2023-03-22T03:17:41.729Z,99.02
2023-03-22T03:21:47.391Z,98.58
2023-03-22T03:25:58.002Z,98.04
2023-03-22T03:30:06.686Z,98.14
2023-03-22T03:34:16.654Z,98.79
2023-03-22T03:38:21.128Z,98.81
2023-03-22T03:42:26.780Z,98.06
2023-03-22T03:46:30.814Z,98.53
2023-03-22T03:50:33.954Z,99.42
2023-03-22T03:54:36.638Z,98.94
2023-03-22T03:58:39.326Z,97.73
2023-03-22T04:02:43.582Z,98.03
2023-03-22T04:06:46.238Z,97.98
2023-03-22T04:10:50.968Z,96.81
2023-03-22T04:14:55.954Z,97.63
2023-03-22T04:19:00.621Z,98.70
2023-03-22T04:23:03.300Z,97.50
2023-03-22T04:27:05.988Z,96.39
2023-03-22T04:31:09.087Z,96.79
2023-03-22T04:35:13.153Z,97.34
2023-03-22T04:39:16.160Z,96.32
2023-03-22T04:43:18.929Z,98.20
2023-03-22T04:47:21.573Z,96.72
2023-03-22T04:51:26.691Z,96.99
2023-03-22T04:55:30.035Z,97.23
2023-03-22T04:59:32.831Z,97.36
2023-03-22T05:03:36.470Z,96.65
2023-03-22T05:07:40.545Z,98.23
2023-03-22T05:11:43.358Z,97.32
2023-03-22T05:15:47.343Z,97.22
2023-03-22T05:19:52.313Z,96.29
2023-03-22T05:23:57.839Z,97.32
2023-03-22T05:28:01.583Z,97.57
2023-03-22T05:32:04.429Z,97.58
2023-03-22T05:36:08.017Z,97.91
2023-03-22T05:40:12.693Z,97.60
2023-03-22T05:44:15.463Z,98.45
2023-03-22T05:48:18.543Z,96.30
2023-03-22T05:52:21.254Z,97.50
2023-03-22T05:56:25.311Z,98.56
2023-03-22T06:00:28.813Z,97.36
2023-03-22T06:04:31.494Z,98.89
2023-03-22T06:08:34.692Z,97.66
2023-03-22T06:12:39.264Z,98.09
2023-03-22T06:16:42.040Z,98.36
2023-03-22T06:20:44.941Z,98.91
2023-03-22T06:24:48.942Z,98.17
2023-03-22T06:28:52.938Z,98.54
2023-03-22T06:32:55.474Z,98.91
2023-03-22T06:36:58.155Z,98.99
2023-03-22T06:41:00.861Z,98.63
2023-03-22T06:45:06.194Z,98.47
2023-03-22T06:49:08.835Z,98.00
2023-03-22T06:53:11.670Z,97.51
2023-03-22T06:57:14.411Z,94.71
2023-03-22T07:01:18.484Z,94.11
2023-03-22T07:05:21.815Z,93.97
2023-03-22T07:09:26.837Z,95.01
2023-03-22T07:13:29.696Z,93.57
2023-03-22T07:17:33.735Z,92.90
2023-03-22T07:21:36.466Z,91.66
2023-03-22T07:25:39.170Z,93.72
2023-03-22T07:29:42.269Z,92.38
2023-03-22T07:33:46.823Z,91.53
2023-03-22T07:37:49.994Z,93.52
2023-03-22T07:41:52.727Z,92.62
2023-03-22T07:45:55.583Z,92.20
2023-03-22T07:49:59.724Z,91.05
2023-03-22T07:54:02.573Z,91.28
2023-03-22T07:58:06.099Z,90.38
2023-03-22T08:02:11.087Z,89.39
2023-03-22T08:06:16.439Z,89.83
2023-03-22T08:10:19.728Z,89.40
2023-03-22T08:14:34.074Z,88.50
2023-03-22T08:18:39.005Z,87.86
2023-03-22T08:22:43.200Z,87.45
2023-03-22T08:26:49.692Z,86.62
2023-03-22T08:30:53.581Z,85.34
2023-03-22T08:34:56.450Z,85.16
2023-03-22T08:39:01.449Z,85.14
2023-03-22T08:43:04.278Z,83.88
2023-03-22T08:47:07.041Z,83.89
2023-03-22T08:51:10.674Z,82.37
2023-03-22T08:55:17.812Z,82.40
2023-03-22T08:59:20.500Z,81.34
2023-03-22T09:03:24.055Z,79.58
2023-03-22T09:07:27.335Z,80.35
2023-03-22T09:11:31.348Z,78.83
2023-03-22T09:15:34.101Z,78.56
2023-03-22T09:19:37.034Z,77.66
2023-03-22T09:23:40.240Z,77.40
2023-03-22T09:27:44.420Z,77.61
2023-03-22T09:31:48.938Z,76.05
2023-03-22T09:35:51.661Z,77.06
2023-03-22T09:39:54.628Z,77.61
2023-03-22T09:44:01.768Z,74.88
2023-03-22T09:48:07.196Z,73.12
2023-03-22T09:52:14.301Z,71.90
2023-03-22T09:56:23.170Z,70.96
2023-03-22T10:00:34.866Z,72.62
2023-03-22T10:04:48.024Z,70.20
2023-03-22T10:08:58.525Z,69.24
2023-03-22T10:13:07.743Z,67.90
2023-03-22T10:17:16.633Z,66.71
2023-03-22T10:21:20.361Z,66.37
2023-03-22T10:25:32.835Z,65.72
2023-03-22T10:29:39.057Z,66.70
2023-03-22T10:33:50.472Z,67.86
2023-03-22T10:37:54.136Z,67.99
2023-03-22T10:41:58.467Z,67.97
2023-03-22T10:46:03.828Z,68.18
2023-03-22T10:50:13.738Z,66.75
2023-03-22T10:54:18.160Z,65.04
2023-03-22T10:58:22.252Z,62.70
2023-03-22T11:02:27.691Z,61.89
2023-03-22T11:06:35.659Z,59.94
2023-03-22T11:10:39.181Z,61.03
2023-03-22T11:14:44.635Z,58.22
2023-03-22T11:18:47.544Z,56.17
2023-03-22T11:22:52.777Z,58.77
2023-03-22T11:27:03.706Z,59.72
2023-03-22T11:31:09.420Z,58.27
2023-03-22T11:35:14.923Z,60.26
2023-03-22T11:39:19.201Z,58.19
2023-03-22T11:43:24.427Z,58.72
2023-03-22T11:47:28.143Z,59.75
2023-03-22T11:51:33.476Z,56.70
2023-03-22T11:55:37.966Z,57.29
2023-03-22T11:59:43.680Z,58.48
2023-03-22T12:03:51.142Z,56.49
2023-03-22T12:07:57.931Z,58.80
2023-03-22T12:12:03.060Z,58.21
2023-03-22T12:16:07.708Z,60.04
2023-03-22T12:20:18.757Z,57.83
2023-03-22T12:24:27.953Z,57.32
2023-03-22T12:28:35.018Z,59.75
2023-03-22T12:32:41.908Z,59.54
2023-03-22T12:36:48.009Z,58.93
2023-03-22T12:40:50.920Z,56.71
2023-03-22T12:45:05.094Z,57.11
2023-03-22T12:49:17.591Z,55.72
2023-03-22T12:53:21.528Z,55.25
2023-03-22T12:57:24.237Z,56.51
2023-03-22T13:01:34.677Z,53.53
2023-03-22T13:05:37.951Z,53.77
2023-03-22T13:09:43.454Z,54.07
2023-03-22T13:13:47.933Z,53.47
2023-03-22T13:17:52.000Z,54.48
2023-03-22T13:22:15.026Z,54.59
2023-03-22T13:26:18.183Z,53.52
2023-03-22T13:30:26.239Z,52.39
2023-03-22T13:34:38.243Z,50.39
2023-03-22T13:38:42.778Z,51.04
2023-03-22T13:42:45.717Z,53.36
2023-03-22T13:46:52.475Z,51.64
2023-03-22T13:50:56.923Z,52.38
2023-03-22T13:54:59.941Z,53.88
2023-03-22T13:59:04.983Z,53.09
2023-03-22T14:03:14.950Z,51.58
2023-03-22T14:07:24.273Z,53.44
2023-03-22T14:11:30.623Z,53.28
2023-03-22T14:15:36.212Z,53.56
2023-03-22T14:19:39.703Z,53.53
